sensor_id;sensor_type;location;lat;lon;timestamp;P1;durP1;ratioP1;P2;durP2;ratioP2
12675;SDS011;63820;65.654;21.944;2024-02-21T00:00:08;5.13;;;2.30;;
12675;SDS011;63820;65.654;21.944;2024-02-21T00:02:53;2.80;;;2.10;;
12675;SDS011;63820;65.654;21.944;2024-02-21T00:05:37;3.53;;;1.90;;
12675;SDS011;63820;65.654;21.944;2024-02-21T00:08:21;5.73;;;2.07;;
12675;SDS011;63820;65.654;21.944;2024-02-21T00:11:05;3.10;;;1.70;;
12675;SDS011;63820;65.654;21.944;2024-02-21T00:13:50;3.67;;;2.07;;
12675;SDS011;63820;65.654;21.944;2024-02-21T00:16:34;3.43;;;2.27;;
12675;SDS011;63820;65.654;21.944;2024-02-21T00:19:18;2.97;;;1.73;;
12675;SDS011;63820;65.654;21.944;2024-02-21T00:22:02;4.63;;;2.17;;
12675;SDS011;63820;65.654;21.944;2024-02-21T00:24:46;4.83;;;1.93;;
12675;SDS011;63820;65.654;21.944;2024-02-21T00:27:30;3.40;;;2.00;;
12675;SDS011;63820;65.654;21.944;2024-02-21T00:30:15;2.20;;;2.00;;
12675;SDS011;63820;65.654;21.944;2024-02-21T00:32:59;3.57;;;2.00;;
12675;SDS011;63820;65.654;21.944;2024-02-21T00:35:43;3.87;;;1.90;;
12675;SDS011;63820;65.654;21.944;2024-02-21T00:38:27;2.03;;;1.77;;
12675;SDS011;63820;65.654;21.944;2024-02-21T00:41:11;3.33;;;2.27;;
12675;SDS011;63820;65.654;21.944;2024-02-21T00:43:55;3.23;;;2.00;;
12675;SDS011;63820;65.654;21.944;2024-02-21T00:46:39;4.33;;;2.10;;
12675;SDS011;63820;65.654;21.944;2024-02-21T00:49:23;5.80;;;2.43;;
12675;SDS011;63820;65.654;21.944;2024-02-21T00:52:07;3.77;;;2.37;;
12675;SDS011;63820;65.654;21.944;2024-02-21T00:54:51;4.63;;;2.60;;
12675;SDS011;63820;65.654;21.944;2024-02-21T00:57:35;3.67;;;2.40;;
12675;SDS011;63820;65.654;21.944;2024-02-21T01:00:20;3.30;;;2.03;;
12675;SDS011;63820;65.654;21.944;2024-02-21T01:03:04;3.87;;;2.43;;
12675;SDS011;63820;65.654;21.944;2024-02-21T01:05:48;2.80;;;2.17;;
12675;SDS011;63820;65.654;21.944;2024-02-21T01:08:32;4.73;;;2.70;;
12675;SDS011;63820;65.654;21.944;2024-02-21T01:11:16;3.67;;;2.37;;
12675;SDS011;63820;65.654;21.944;2024-02-21T01:14:00;4.00;;;2.40;;
12675;SDS011;63820;65.654;21.944;2024-02-21T01:16:44;4.83;;;2.30;;
12675;SDS011;63820;65.654;21.944;2024-02-21T01:19:28;3.03;;;1.93;;
12675;SDS011;63820;65.654;21.944;2024-02-21T01:22:12;3.33;;;2.40;;
12675;SDS011;63820;65.654;21.944;2024-02-21T01:24:57;3.93;;;2.20;;
12675;SDS011;63820;65.654;21.944;2024-02-21T01:27:41;3.23;;;2.33;;
12675;SDS011;63820;65.654;21.944;2024-02-21T01:30:25;4.40;;;2.10;;
12675;SDS011;63820;65.654;21.944;2024-02-21T01:33:09;3.53;;;2.33;;
12675;SDS011;63820;65.654;21.944;2024-02-21T01:35:53;2.53;;;1.97;;
12675;SDS011;63820;65.654;21.944;2024-02-21T01:38:37;3.53;;;2.30;;
12675;SDS011;63820;65.654;21.944;2024-02-21T01:41:21;3.87;;;2.43;;
12675;SDS011;63820;65.654;21.944;2024-02-21T01:44:05;2.83;;;2.33;;
12675;SDS011;63820;65.654;21.944;2024-02-21T01:46:49;7.20;;;2.80;;
12675;SDS011;63820;65.654;21.944;2024-02-21T01:49:33;3.23;;;2.17;;
12675;SDS011;63820;65.654;21.944;2024-02-21T01:52:18;4.70;;;2.70;;
12675;SDS011;63820;65.654;21.944;2024-02-21T01:55:02;4.77;;;2.17;;
12675;SDS011;63820;65.654;21.944;2024-02-21T01:57:46;4.30;;;2.30;;
12675;SDS011;63820;65.654;21.944;2024-02-21T02:00:30;3.83;;;2.37;;
12675;SDS011;63820;65.654;21.944;2024-02-21T02:03:15;7.53;;;2.73;;
12675;SDS011;63820;65.654;21.944;2024-02-21T02:06:00;2.93;;;2.33;;
12675;SDS011;63820;65.654;21.944;2024-02-21T02:08:44;4.63;;;2.80;;
12675;SDS011;63820;65.654;21.944;2024-02-21T02:11:28;3.27;;;2.40;;
12675;SDS011;63820;65.654;21.944;2024-02-21T02:14:12;3.03;;;2.27;;
12675;SDS011;63820;65.654;21.944;2024-02-21T02:16:56;3.07;;;2.20;;
12675;SDS011;63820;65.654;21.944;2024-02-21T02:19:40;3.00;;;2.27;;
12675;SDS011;63820;65.654;21.944;2024-02-21T02:22:31;4.03;;;3.00;;
12675;SDS011;63820;65.654;21.944;2024-02-21T02:25:17;6.80;;;2.80;;
12675;SDS011;63820;65.654;21.944;2024-02-21T02:28:01;3.47;;;2.43;;
12675;SDS011;63820;65.654;21.944;2024-02-21T02:30:45;3.43;;;2.43;;
12675;SDS011;63820;65.654;21.944;2024-02-21T02:33:30;4.53;;;2.87;;
12675;SDS011;63820;65.654;21.944;2024-02-21T02:36:15;4.83;;;2.80;;
12675;SDS011;63820;65.654;21.944;2024-02-21T02:38:59;4.53;;;2.40;;
12675;SDS011;63820;65.654;21.944;2024-02-21T02:41:43;5.27;;;2.30;;
12675;SDS011;63820;65.654;21.944;2024-02-21T02:44:27;5.57;;;2.43;;
12675;SDS011;63820;65.654;21.944;2024-02-21T02:47:11;2.97;;;2.17;;
12675;SDS011;63820;65.654;21.944;2024-02-21T02:49:55;4.43;;;2.40;;
12675;SDS011;63820;65.654;21.944;2024-02-21T02:52:39;4.43;;;2.37;;
12675;SDS011;63820;65.654;21.944;2024-02-21T02:55:23;5.93;;;2.87;;
12675;SDS011;63820;65.654;21.944;2024-02-21T02:58:07;4.67;;;2.83;;
12675;SDS011;63820;65.654;21.944;2024-02-21T03:00:52;4.20;;;2.50;;
12675;SDS011;63820;65.654;21.944;2024-02-21T03:03:36;3.43;;;2.33;;
12675;SDS011;63820;65.654;21.944;2024-02-21T03:06:20;5.17;;;2.97;;
12675;SDS011;63820;65.654;21.944;2024-02-21T03:09:04;4.43;;;2.63;;
12675;SDS011;63820;65.654;21.944;2024-02-21T03:11:52;4.03;;;2.70;;
12675;SDS011;63820;65.654;21.944;2024-02-21T03:14:40;4.53;;;2.63;;
12675;SDS011;63820;65.654;21.944;2024-02-21T03:17:24;5.00;;;2.70;;
12675;SDS011;63820;65.654;21.944;2024-02-21T03:20:10;6.00;;;3.07;;
12675;SDS011;63820;65.654;21.944;2024-02-21T03:22:55;3.93;;;2.47;;
12675;SDS011;63820;65.654;21.944;2024-02-21T03:25:39;4.53;;;2.60;;
12675;SDS011;63820;65.654;21.944;2024-02-21T03:28:23;3.33;;;2.40;;
12675;SDS011;63820;65.654;21.944;2024-02-21T03:31:07;5.50;;;2.93;;
12675;SDS011;63820;65.654;21.944;2024-02-21T03:33:51;6.17;;;2.90;;
12675;SDS011;63820;65.654;21.944;2024-02-21T03:36:35;4.03;;;2.50;;
12675;SDS011;63820;65.654;21.944;2024-02-21T03:39:19;5.80;;;2.43;;
12675;SDS011;63820;65.654;21.944;2024-02-21T03:42:05;4.17;;;2.70;;
12675;SDS011;63820;65.654;21.944;2024-02-21T03:44:50;4.53;;;2.40;;
12675;SDS011;63820;65.654;21.944;2024-02-21T03:47:34;3.83;;;2.77;;
12675;SDS011;63820;65.654;21.944;2024-02-21T03:50:18;4.97;;;2.63;;
12675;SDS011;63820;65.654;21.944;2024-02-21T03:53:02;7.70;;;3.03;;
12675;SDS011;63820;65.654;21.944;2024-02-21T03:55:47;6.17;;;3.10;;
12675;SDS011;63820;65.654;21.944;2024-02-21T03:58:31;4.90;;;2.93;;
12675;SDS011;63820;65.654;21.944;2024-02-21T04:01:15;4.30;;;2.30;;
12675;SDS011;63820;65.654;21.944;2024-02-21T04:03:59;6.40;;;3.03;;
12675;SDS011;63820;65.654;21.944;2024-02-21T04:06:47;4.47;;;2.70;;
12675;SDS011;63820;65.654;21.944;2024-02-21T04:09:34;6.87;;;2.87;;
12675;SDS011;63820;65.654;21.944;2024-02-21T04:12:18;4.10;;;2.50;;
12675;SDS011;63820;65.654;21.944;2024-02-21T04:15:02;5.73;;;2.97;;
12675;SDS011;63820;65.654;21.944;2024-02-21T04:17:47;5.43;;;2.57;;
12675;SDS011;63820;65.654;21.944;2024-02-21T04:20:31;7.03;;;3.00;;
12675;SDS011;63820;65.654;21.944;2024-02-21T04:23:16;6.07;;;2.87;;
12675;SDS011;63820;65.654;21.944;2024-02-21T04:26:00;4.37;;;2.67;;
12675;SDS011;63820;65.654;21.944;2024-02-21T04:28:47;7.57;;;3.10;;
12675;SDS011;63820;65.654;21.944;2024-02-21T04:31:32;6.67;;;3.30;;
12675;SDS011;63820;65.654;21.944;2024-02-21T04:34:16;6.13;;;2.90;;
12675;SDS011;63820;65.654;21.944;2024-02-21T04:37:00;8.13;;;3.10;;
12675;SDS011;63820;65.654;21.944;2024-02-21T04:39:44;6.77;;;3.07;;
12675;SDS011;63820;65.654;21.944;2024-02-21T04:42:28;4.87;;;2.70;;
12675;SDS011;63820;65.654;21.944;2024-02-21T04:45:12;6.07;;;2.83;;
12675;SDS011;63820;65.654;21.944;2024-02-21T04:47:56;5.77;;;2.60;;
12675;SDS011;63820;65.654;21.944;2024-02-21T04:50:40;6.77;;;2.90;;
12675;SDS011;63820;65.654;21.944;2024-02-21T04:53:24;6.70;;;3.20;;
12675;SDS011;63820;65.654;21.944;2024-02-21T04:56:08;4.97;;;3.03;;
12675;SDS011;63820;65.654;21.944;2024-02-21T04:58:53;5.30;;;2.70;;
12675;SDS011;63820;65.654;21.944;2024-02-21T05:01:37;4.73;;;2.63;;
12675;SDS011;63820;65.654;21.944;2024-02-21T05:04:21;7.33;;;3.10;;
12675;SDS011;63820;65.654;21.944;2024-02-21T05:07:05;4.53;;;2.90;;
12675;SDS011;63820;65.654;21.944;2024-02-21T05:09:49;9.43;;;3.30;;
12675;SDS011;63820;65.654;21.944;2024-02-21T05:12:33;5.27;;;3.00;;
12675;SDS011;63820;65.654;21.944;2024-02-21T05:15:17;4.83;;;2.63;;
12675;SDS011;63820;65.654;21.944;2024-02-21T05:18:01;4.60;;;2.87;;
12675;SDS011;63820;65.654;21.944;2024-02-21T05:20:45;5.57;;;3.10;;
12675;SDS011;63820;65.654;21.944;2024-02-21T05:23:29;7.00;;;3.43;;
12675;SDS011;63820;65.654;21.944;2024-02-21T05:26:19;6.33;;;2.87;;
12675;SDS011;63820;65.654;21.944;2024-02-21T05:29:04;4.93;;;2.87;;
12675;SDS011;63820;65.654;21.944;2024-02-21T05:34:35;7.60;;;3.40;;
12675;SDS011;63820;65.654;21.944;2024-02-21T05:37:20;7.60;;;3.37;;
12675;SDS011;63820;65.654;21.944;2024-02-21T05:40:04;5.93;;;3.00;;
12675;SDS011;63820;65.654;21.944;2024-02-21T05:42:48;3.97;;;2.27;;
12675;SDS011;63820;65.654;21.944;2024-02-21T05:45:32;4.30;;;2.50;;
12675;SDS011;63820;65.654;21.944;2024-02-21T05:48:16;2.77;;;1.83;;
12675;SDS011;63820;65.654;21.944;2024-02-21T05:51:01;3.93;;;2.20;;
12675;SDS011;63820;65.654;21.944;2024-02-21T05:53:46;3.27;;;2.13;;
12675;SDS011;63820;65.654;21.944;2024-02-21T05:56:30;4.40;;;1.90;;
12675;SDS011;63820;65.654;21.944;2024-02-21T05:59:14;2.90;;;1.70;;
12675;SDS011;63820;65.654;21.944;2024-02-21T06:01:58;4.73;;;2.37;;
12675;SDS011;63820;65.654;21.944;2024-02-21T06:04:43;2.83;;;2.00;;
12675;SDS011;63820;65.654;21.944;2024-02-21T06:07:28;3.03;;;1.60;;
12675;SDS011;63820;65.654;21.944;2024-02-21T06:10:12;2.80;;;1.90;;
12675;SDS011;63820;65.654;21.944;2024-02-21T06:12:56;3.90;;;1.83;;
12675;SDS011;63820;65.654;21.944;2024-02-21T06:15:40;2.17;;;1.53;;
12675;SDS011;63820;65.654;21.944;2024-02-21T06:18:24;2.40;;;1.70;;
12675;SDS011;63820;65.654;21.944;2024-02-21T06:21:08;3.23;;;1.63;;
12675;SDS011;63820;65.654;21.944;2024-02-21T06:23:52;2.13;;;1.67;;
12675;SDS011;63820;65.654;21.944;2024-02-21T06:26:36;2.23;;;1.63;;
12675;SDS011;63820;65.654;21.944;2024-02-21T06:29:20;3.20;;;2.00;;
12675;SDS011;63820;65.654;21.944;2024-02-21T06:32:04;4.70;;;2.60;;
12675;SDS011;63820;65.654;21.944;2024-02-21T06:34:49;2.47;;;1.60;;
12675;SDS011;63820;65.654;21.944;2024-02-21T06:37:33;3.53;;;1.80;;
12675;SDS011;63820;65.654;21.944;2024-02-21T06:40:17;2.60;;;1.60;;
12675;SDS011;63820;65.654;21.944;2024-02-21T06:43:03;1.97;;;1.67;;
12675;SDS011;63820;65.654;21.944;2024-02-21T06:45:48;2.73;;;1.63;;
12675;SDS011;63820;65.654;21.944;2024-02-21T06:48:34;4.63;;;1.80;;
12675;SDS011;63820;65.654;21.944;2024-02-21T06:51:18;2.23;;;1.60;;
12675;SDS011;63820;65.654;21.944;2024-02-21T06:54:02;2.33;;;1.50;;
12675;SDS011;63820;65.654;21.944;2024-02-21T06:56:46;2.00;;;1.60;;
12675;SDS011;63820;65.654;21.944;2024-02-21T06:59:31;2.73;;;1.70;;
12675;SDS011;63820;65.654;21.944;2024-02-21T07:02:14;2.63;;;1.93;;
12675;SDS011;63820;65.654;21.944;2024-02-21T07:04:58;3.63;;;2.23;;
12675;SDS011;63820;65.654;21.944;2024-02-21T07:07:42;1.90;;;1.40;;
12675;SDS011;63820;65.654;21.944;2024-02-21T07:10:26;2.70;;;1.83;;
12675;SDS011;63820;65.654;21.944;2024-02-21T07:13:12;2.57;;;1.87;;
12675;SDS011;63820;65.654;21.944;2024-02-21T07:15:58;3.10;;;1.80;;
12675;SDS011;63820;65.654;21.944;2024-02-21T07:18:42;1.63;;;1.33;;
12675;SDS011;63820;65.654;21.944;2024-02-21T07:21:26;2.13;;;1.83;;
12675;SDS011;63820;65.654;21.944;2024-02-21T07:24:10;2.10;;;1.80;;
12675;SDS011;63820;65.654;21.944;2024-02-21T07:26:54;1.47;;;1.30;;
12675;SDS011;63820;65.654;21.944;2024-02-21T07:29:40;2.33;;;1.70;;
12675;SDS011;63820;65.654;21.944;2024-02-21T07:32:24;2.93;;;2.00;;
12675;SDS011;63820;65.654;21.944;2024-02-21T07:35:08;3.97;;;1.60;;
12675;SDS011;63820;65.654;21.944;2024-02-21T07:37:55;2.40;;;1.70;;
12675;SDS011;63820;65.654;21.944;2024-02-21T07:40:39;2.20;;;1.40;;
12675;SDS011;63820;65.654;21.944;2024-02-21T07:43:24;1.50;;;1.20;;
12675;SDS011;63820;65.654;21.944;2024-02-21T07:46:10;2.27;;;1.40;;
12675;SDS011;63820;65.654;21.944;2024-02-21T07:48:54;2.03;;;1.27;;
12675;SDS011;63820;65.654;21.944;2024-02-21T07:51:38;1.20;;;1.00;;
12675;SDS011;63820;65.654;21.944;2024-02-21T07:54:22;1.50;;;1.20;;
12675;SDS011;63820;65.654;21.944;2024-02-21T07:57:06;1.40;;;1.20;;
12675;SDS011;63820;65.654;21.944;2024-02-21T07:59:51;1.50;;;1.20;;
12675;SDS011;63820;65.654;21.944;2024-02-21T08:02:35;1.40;;;1.30;;
12675;SDS011;63820;65.654;21.944;2024-02-21T08:05:19;1.20;;;1.03;;
12675;SDS011;63820;65.654;21.944;2024-02-21T08:08:03;1.57;;;1.20;;
12675;SDS011;63820;65.654;21.944;2024-02-21T08:10:51;1.27;;;1.10;;
12675;SDS011;63820;65.654;21.944;2024-02-21T08:13:35;1.20;;;1.00;;
12675;SDS011;63820;65.654;21.944;2024-02-21T08:16:19;1.37;;;1.13;;
12675;SDS011;63820;65.654;21.944;2024-02-21T08:19:03;1.43;;;1.10;;
12675;SDS011;63820;65.654;21.944;2024-02-21T08:21:48;1.17;;;1.00;;
12675;SDS011;63820;65.654;21.944;2024-02-21T08:24:32;1.33;;;1.20;;
12675;SDS011;63820;65.654;21.944;2024-02-21T08:27:19;1.33;;;0.80;;
12675;SDS011;63820;65.654;21.944;2024-02-21T08:30:03;1.20;;;1.00;;
12675;SDS011;63820;65.654;21.944;2024-02-21T08:32:48;1.43;;;0.63;;
12675;SDS011;63820;65.654;21.944;2024-02-21T08:35:32;0.80;;;0.80;;
12675;SDS011;63820;65.654;21.944;2024-02-21T08:38:16;1.97;;;1.50;;
12675;SDS011;63820;65.654;21.944;2024-02-21T08:41:00;1.70;;;1.17;;
12675;SDS011;63820;65.654;21.944;2024-02-21T08:43:44;0.80;;;0.70;;
12675;SDS011;63820;65.654;21.944;2024-02-21T08:46:28;0.57;;;0.57;;
12675;SDS011;63820;65.654;21.944;2024-02-21T08:49:12;0.80;;;0.80;;
12675;SDS011;63820;65.654;21.944;2024-02-21T08:51:57;1.67;;;0.77;;
12675;SDS011;63820;65.654;21.944;2024-02-21T08:54:41;0.90;;;0.70;;
12675;SDS011;63820;65.654;21.944;2024-02-21T08:57:25;1.17;;;0.77;;
12675;SDS011;63820;65.654;21.944;2024-02-21T09:00:09;0.60;;;0.60;;
12675;SDS011;63820;65.654;21.944;2024-02-21T09:02:54;0.70;;;0.70;;
12675;SDS011;63820;65.654;21.944;2024-02-21T09:05:39;0.70;;;0.60;;
12675;SDS011;63820;65.654;21.944;2024-02-21T09:08:23;0.60;;;0.60;;
12675;SDS011;63820;65.654;21.944;2024-02-21T09:11:08;0.63;;;0.63;;
12675;SDS011;63820;65.654;21.944;2024-02-21T09:13:53;0.53;;;0.53;;
12675;SDS011;63820;65.654;21.944;2024-02-21T09:16:37;0.83;;;0.80;;
12675;SDS011;63820;65.654;21.944;2024-02-21T09:19:21;0.80;;;0.60;;
12675;SDS011;63820;65.654;21.944;2024-02-21T09:22:05;0.60;;;0.60;;
12675;SDS011;63820;65.654;21.944;2024-02-21T09:24:49;0.70;;;0.70;;
12675;SDS011;63820;65.654;21.944;2024-02-21T09:27:33;0.60;;;0.60;;
12675;SDS011;63820;65.654;21.944;2024-02-21T09:30:17;0.70;;;0.70;;
12675;SDS011;63820;65.654;21.944;2024-02-21T09:33:02;0.97;;;0.70;;
12675;SDS011;63820;65.654;21.944;2024-02-21T09:35:47;0.83;;;0.60;;
12675;SDS011;63820;65.654;21.944;2024-02-21T09:38:32;0.60;;;0.60;;
12675;SDS011;63820;65.654;21.944;2024-02-21T09:41:22;0.60;;;0.60;;
12675;SDS011;63820;65.654;21.944;2024-02-21T09:44:11;0.60;;;0.60;;
12675;SDS011;63820;65.654;21.944;2024-02-21T09:47:02;0.60;;;0.60;;
12675;SDS011;63820;65.654;21.944;2024-02-21T09:49:48;0.60;;;0.60;;
12675;SDS011;63820;65.654;21.944;2024-02-21T09:52:33;0.50;;;0.50;;
12675;SDS011;63820;65.654;21.944;2024-02-21T09:55:19;0.50;;;0.50;;
12675;SDS011;63820;65.654;21.944;2024-02-21T09:58:04;0.60;;;0.60;;
12675;SDS011;63820;65.654;21.944;2024-02-21T10:00:48;0.57;;;0.57;;
12675;SDS011;63820;65.654;21.944;2024-02-21T10:03:32;0.90;;;0.90;;
12675;SDS011;63820;65.654;21.944;2024-02-21T10:06:18;0.70;;;0.70;;
12675;SDS011;63820;65.654;21.944;2024-02-21T10:09:02;0.63;;;0.60;;
12675;SDS011;63820;65.654;21.944;2024-02-21T10:11:47;1.03;;;0.93;;
12675;SDS011;63820;65.654;21.944;2024-02-21T10:14:31;0.73;;;0.73;;
12675;SDS011;63820;65.654;21.944;2024-02-21T10:17:16;1.13;;;0.80;;
12675;SDS011;63820;65.654;21.944;2024-02-21T10:20:08;1.50;;;1.00;;
12675;SDS011;63820;65.654;21.944;2024-02-21T10:23:03;1.10;;;0.97;;
12675;SDS011;63820;65.654;21.944;2024-02-21T10:26:06;1.10;;;1.00;;
12675;SDS011;63820;65.654;21.944;2024-02-21T10:28:50;1.17;;;1.00;;
12675;SDS011;63820;65.654;21.944;2024-02-21T10:31:35;1.30;;;1.20;;
12675;SDS011;63820;65.654;21.944;2024-02-21T10:34:19;1.00;;;0.90;;
12675;SDS011;63820;65.654;21.944;2024-02-21T10:37:04;1.17;;;1.03;;
12675;SDS011;63820;65.654;21.944;2024-02-21T10:39:53;1.27;;;1.17;;
12675;SDS011;63820;65.654;21.944;2024-02-21T10:42:37;1.33;;;0.90;;
12675;SDS011;63820;65.654;21.944;2024-02-21T10:45:21;0.83;;;0.80;;
12675;SDS011;63820;65.654;21.944;2024-02-21T10:51:02;1.07;;;0.60;;
12675;SDS011;63820;65.654;21.944;2024-02-21T10:56:36;0.80;;;0.60;;
12675;SDS011;63820;65.654;21.944;2024-02-21T10:59:23;0.50;;;0.50;;
12675;SDS011;63820;65.654;21.944;2024-02-21T11:02:10;0.77;;;0.60;;
12675;SDS011;63820;65.654;21.944;2024-02-21T11:04:54;0.40;;;0.40;;
12675;SDS011;63820;65.654;21.944;2024-02-21T11:07:39;0.30;;;0.30;;
12675;SDS011;63820;65.654;21.944;2024-02-21T11:10:24;0.37;;;0.37;;
12675;SDS011;63820;65.654;21.944;2024-02-21T11:13:09;0.50;;;0.40;;
12675;SDS011;63820;65.654;21.944;2024-02-21T11:15:54;0.40;;;0.40;;
12675;SDS011;63820;65.654;21.944;2024-02-21T11:18:38;0.43;;;0.40;;
12675;SDS011;63820;65.654;21.944;2024-02-21T11:21:32;0.40;;;0.40;;
12675;SDS011;63820;65.654;21.944;2024-02-21T11:24:30;0.40;;;0.40;;
12675;SDS011;63820;65.654;21.944;2024-02-21T11:27:16;0.53;;;0.53;;
12675;SDS011;63820;65.654;21.944;2024-02-21T11:30:06;0.40;;;0.40;;
12675;SDS011;63820;65.654;21.944;2024-02-21T11:32:50;0.40;;;0.40;;
12675;SDS011;63820;65.654;21.944;2024-02-21T11:35:51;0.40;;;0.40;;
12675;SDS011;63820;65.654;21.944;2024-02-21T11:38:36;0.47;;;0.47;;
12675;SDS011;63820;65.654;21.944;2024-02-21T11:41:21;0.53;;;0.40;;
12675;SDS011;63820;65.654;21.944;2024-02-21T11:44:05;0.43;;;0.40;;
12675;SDS011;63820;65.654;21.944;2024-02-21T11:46:49;0.53;;;0.40;;
12675;SDS011;63820;65.654;21.944;2024-02-21T11:49:36;0.70;;;0.70;;
12675;SDS011;63820;65.654;21.944;2024-02-21T11:52:25;0.40;;;0.40;;
12675;SDS011;63820;65.654;21.944;2024-02-21T11:55:11;0.40;;;0.40;;
12675;SDS011;63820;65.654;21.944;2024-02-21T11:57:55;0.60;;;0.50;;
12675;SDS011;63820;65.654;21.944;2024-02-21T12:00:39;0.50;;;0.50;;
12675;SDS011;63820;65.654;21.944;2024-02-21T12:03:24;0.90;;;0.60;;
12675;SDS011;63820;65.654;21.944;2024-02-21T12:06:07;0.70;;;0.53;;
12675;SDS011;63820;65.654;21.944;2024-02-21T12:08:51;0.67;;;0.67;;
12675;SDS011;63820;65.654;21.944;2024-02-21T12:11:36;0.50;;;0.50;;
12675;SDS011;63820;65.654;21.944;2024-02-21T12:14:21;0.60;;;0.60;;
12675;SDS011;63820;65.654;21.944;2024-02-21T12:17:06;1.07;;;0.73;;
12675;SDS011;63820;65.654;21.944;2024-02-21T12:19:50;0.60;;;0.60;;
12675;SDS011;63820;65.654;21.944;2024-02-21T12:22:35;0.87;;;0.50;;
12675;SDS011;63820;65.654;21.944;2024-02-21T12:25:20;0.60;;;0.60;;
12675;SDS011;63820;65.654;21.944;2024-02-21T12:28:10;0.70;;;0.60;;
12675;SDS011;63820;65.654;21.944;2024-02-21T12:30:54;0.80;;;0.70;;
12675;SDS011;63820;65.654;21.944;2024-02-21T12:33:39;0.80;;;0.80;;
12675;SDS011;63820;65.654;21.944;2024-02-21T12:36:23;0.70;;;0.70;;
12675;SDS011;63820;65.654;21.944;2024-02-21T12:39:08;0.90;;;0.70;;
12675;SDS011;63820;65.654;21.944;2024-02-21T12:41:55;0.70;;;0.67;;
12675;SDS011;63820;65.654;21.944;2024-02-21T12:44:42;1.20;;;0.60;;
12675;SDS011;63820;65.654;21.944;2024-02-21T12:47:26;0.70;;;0.63;;
12675;SDS011;63820;65.654;21.944;2024-02-21T12:50:10;0.77;;;0.77;;
12675;SDS011;63820;65.654;21.944;2024-02-21T12:52:54;0.70;;;0.70;;
12675;SDS011;63820;65.654;21.944;2024-02-21T12:55:38;1.10;;;0.73;;
12675;SDS011;63820;65.654;21.944;2024-02-21T12:58:22;0.90;;;0.70;;
12675;SDS011;63820;65.654;21.944;2024-02-21T13:01:06;1.00;;;0.80;;
12675;SDS011;63820;65.654;21.944;2024-02-21T13:03:50;0.97;;;0.83;;
12675;SDS011;63820;65.654;21.944;2024-02-21T13:06:34;0.80;;;0.80;;
12675;SDS011;63820;65.654;21.944;2024-02-21T13:09:20;0.97;;;0.80;;
12675;SDS011;63820;65.654;21.944;2024-02-21T13:12:04;0.60;;;0.60;;
12675;SDS011;63820;65.654;21.944;2024-02-21T13:14:49;1.10;;;1.00;;
12675;SDS011;63820;65.654;21.944;2024-02-21T13:17:33;0.90;;;0.80;;
12675;SDS011;63820;65.654;21.944;2024-02-21T13:20:17;0.97;;;0.80;;
12675;SDS011;63820;65.654;21.944;2024-02-21T13:23:01;0.80;;;0.80;;
12675;SDS011;63820;65.654;21.944;2024-02-21T13:25:45;1.10;;;0.73;;
12675;SDS011;63820;65.654;21.944;2024-02-21T13:28:29;1.00;;;0.90;;
12675;SDS011;63820;65.654;21.944;2024-02-21T13:31:14;1.10;;;0.90;;
12675;SDS011;63820;65.654;21.944;2024-02-21T13:34:00;0.70;;;0.70;;
12675;SDS011;63820;65.654;21.944;2024-02-21T13:36:43;0.97;;;0.87;;
12675;SDS011;63820;65.654;21.944;2024-02-21T13:39:27;1.07;;;0.70;;
12675;SDS011;63820;65.654;21.944;2024-02-21T13:42:11;1.00;;;0.90;;
12675;SDS011;63820;65.654;21.944;2024-02-21T13:44:56;0.97;;;0.87;;
12675;SDS011;63820;65.654;21.944;2024-02-21T13:47:40;0.80;;;0.80;;
12675;SDS011;63820;65.654;21.944;2024-02-21T13:50:27;1.20;;;0.80;;
12675;SDS011;63820;65.654;21.944;2024-02-21T13:53:15;0.83;;;0.80;;
12675;SDS011;63820;65.654;21.944;2024-02-21T13:56:02;1.73;;;0.90;;
12675;SDS011;63820;65.654;21.944;2024-02-21T13:58:46;1.27;;;0.77;;
12675;SDS011;63820;65.654;21.944;2024-02-21T14:01:30;0.80;;;0.80;;
12675;SDS011;63820;65.654;21.944;2024-02-21T14:04:15;1.23;;;0.80;;
12675;SDS011;63820;65.654;21.944;2024-02-21T14:06:59;1.03;;;0.83;;
12675;SDS011;63820;65.654;21.944;2024-02-21T14:09:44;1.00;;;0.90;;
12675;SDS011;63820;65.654;21.944;2024-02-21T14:12:28;1.57;;;1.33;;
12675;SDS011;63820;65.654;21.944;2024-02-21T14:15:12;1.47;;;1.10;;
12675;SDS011;63820;65.654;21.944;2024-02-21T14:17:56;1.83;;;1.30;;
12675;SDS011;63820;65.654;21.944;2024-02-21T14:20:40;1.50;;;1.30;;
12675;SDS011;63820;65.654;21.944;2024-02-21T14:23:24;1.60;;;1.30;;
12675;SDS011;63820;65.654;21.944;2024-02-21T14:26:08;1.43;;;1.30;;
12675;SDS011;63820;65.654;21.944;2024-02-21T14:28:52;1.40;;;1.30;;
12675;SDS011;63820;65.654;21.944;2024-02-21T14:31:36;1.90;;;1.30;;
12675;SDS011;63820;65.654;21.944;2024-02-21T14:34:20;2.30;;;1.50;;
12675;SDS011;63820;65.654;21.944;2024-02-21T14:37:04;1.60;;;1.47;;
12675;SDS011;63820;65.654;21.944;2024-02-21T14:39:49;1.90;;;1.43;;
12675;SDS011;63820;65.654;21.944;2024-02-21T14:42:33;1.53;;;1.20;;
12675;SDS011;63820;65.654;21.944;2024-02-21T14:45:18;3.23;;;1.80;;
12675;SDS011;63820;65.654;21.944;2024-02-21T14:48:02;2.27;;;1.57;;
12675;SDS011;63820;65.654;21.944;2024-02-21T14:50:47;1.83;;;1.60;;
12675;SDS011;63820;65.654;21.944;2024-02-21T14:53:31;2.07;;;1.50;;
12675;SDS011;63820;65.654;21.944;2024-02-21T14:56:15;2.87;;;2.10;;
12675;SDS011;63820;65.654;21.944;2024-02-21T14:59:01;2.73;;;2.07;;
12675;SDS011;63820;65.654;21.944;2024-02-21T15:01:45;3.87;;;1.67;;
12675;SDS011;63820;65.654;21.944;2024-02-21T15:04:30;4.63;;;1.90;;
12675;SDS011;63820;65.654;21.944;2024-02-21T15:07:14;3.03;;;2.10;;
12675;SDS011;63820;65.654;21.944;2024-02-21T15:09:58;3.00;;;2.10;;
12675;SDS011;63820;65.654;21.944;2024-02-21T15:12:43;3.13;;;2.27;;
12675;SDS011;63820;65.654;21.944;2024-02-21T15:15:28;2.87;;;1.97;;
12675;SDS011;63820;65.654;21.944;2024-02-21T15:18:12;2.90;;;2.20;;
12675;SDS011;63820;65.654;21.944;2024-02-21T15:20:56;2.50;;;2.07;;
12675;SDS011;63820;65.654;21.944;2024-02-21T15:23:40;2.80;;;2.03;;
12675;SDS011;63820;65.654;21.944;2024-02-21T15:26:25;2.90;;;2.00;;
12675;SDS011;63820;65.654;21.944;2024-02-21T15:29:09;3.40;;;2.10;;
12675;SDS011;63820;65.654;21.944;2024-02-21T15:31:53;3.37;;;2.20;;
12675;SDS011;63820;65.654;21.944;2024-02-21T15:34:38;3.47;;;2.60;;
12675;SDS011;63820;65.654;21.944;2024-02-21T15:37:21;3.40;;;2.50;;
12675;SDS011;63820;65.654;21.944;2024-02-21T15:40:06;3.13;;;2.70;;
12675;SDS011;63820;65.654;21.944;2024-02-21T15:42:51;4.10;;;2.97;;
12675;SDS011;63820;65.654;21.944;2024-02-21T15:45:36;4.50;;;3.10;;
12675;SDS011;63820;65.654;21.944;2024-02-21T15:48:19;4.77;;;3.10;;
12675;SDS011;63820;65.654;21.944;2024-02-21T15:51:06;4.33;;;3.07;;
12675;SDS011;63820;65.654;21.944;2024-02-21T15:53:50;4.73;;;3.00;;
12675;SDS011;63820;65.654;21.944;2024-02-21T15:56:35;4.03;;;3.27;;
12675;SDS011;63820;65.654;21.944;2024-02-21T15:59:19;5.13;;;3.50;;
12675;SDS011;63820;65.654;21.944;2024-02-21T16:02:03;4.57;;;3.23;;
12675;SDS011;63820;65.654;21.944;2024-02-21T16:04:47;3.90;;;2.83;;
12675;SDS011;63820;65.654;21.944;2024-02-21T16:07:31;4.43;;;3.37;;
12675;SDS011;63820;65.654;21.944;2024-02-21T16:10:15;5.80;;;3.10;;
12675;SDS011;63820;65.654;21.944;2024-02-21T16:12:59;4.33;;;3.00;;
12675;SDS011;63820;65.654;21.944;2024-02-21T16:15:44;4.03;;;3.07;;
12675;SDS011;63820;65.654;21.944;2024-02-21T16:18:30;4.67;;;3.27;;
12675;SDS011;63820;65.654;21.944;2024-02-21T16:21:14;5.37;;;3.60;;
12675;SDS011;63820;65.654;21.944;2024-02-21T16:23:58;4.47;;;3.30;;